Terminal Aerodrome Forecast
Issued by NWS

Home | Current Version | Previous Version | Text Only | Print | Product List | Glossary On
Versions: 1 2 3 4 5 6 7 8 9 10 11 12
742
FTUS45 KRIW 212321
TAFBPI
TAF
KBPI 212321Z 2200/2224 31010G16KT P6SM FEW120
     FM220200 34006KT P6SM FEW150
     FM222000 31011KT P6SM SKC=

USA.gov is the U.S. government's official web portal to all federal, state and local government web resources and services.